createdAt,value
2022-11-04T00:03:30.068Z,73.68
2022-11-04T00:08:25.802Z,73.59
2022-11-04T00:13:20.366Z,73.53
2022-11-04T00:18:13.536Z,73.96
2022-11-04T00:23:24.345Z,74.51
2022-11-04T00:28:35.724Z,74.51
2022-11-04T00:33:30.322Z,76.00
2022-11-04T00:38:24.174Z,76.78
2022-11-04T00:43:17.432Z,76.89
2022-11-04T00:48:11.264Z,76.84
2022-11-04T00:53:06.435Z,77.40
2022-11-04T00:58:00.462Z,78.24
2022-11-04T01:02:54.639Z,79.09
2022-11-04T01:07:47.920Z,79.25
2022-11-04T01:12:42.465Z,79.88
2022-11-04T01:17:35.699Z,80.54
2022-11-04T01:22:28.910Z,81.08
2022-11-04T01:27:22.259Z,81.27
2022-11-04T01:32:16.821Z,82.19
2022-11-04T01:37:10.106Z,82.47
2022-11-04T01:47:01.734Z,83.39
2022-11-04T01:52:01.027Z,83.59
2022-11-04T01:56:55.846Z,83.58
2022-11-04T02:01:49.456Z,83.32
2022-11-04T02:06:42.906Z,83.64
2022-11-04T02:11:55.131Z,84.38
2022-11-04T02:16:50.816Z,85.19
2022-11-04T02:22:22.609Z,84.99
2022-11-04T02:27:32.314Z,83.89
2022-11-04T02:32:41.203Z,82.09
2022-11-04T02:37:41.682Z,80.99
2022-11-04T02:42:39.055Z,79.76
2022-11-04T02:47:35.016Z,79.73
2022-11-04T02:52:34.886Z,79.07
2022-11-04T02:57:33.000Z,79.44
2022-11-04T03:02:30.734Z,79.57
2022-11-04T03:07:30.582Z,80.29
2022-11-04T03:12:29.136Z,80.35
2022-11-04T03:17:28.147Z,80.75
2022-11-04T03:22:24.820Z,80.97
2022-11-04T03:27:25.513Z,81.92
2022-11-04T03:32:25.669Z,82.57
2022-11-04T03:37:19.416Z,83.27
2022-11-04T03:42:21.354Z,83.63
2022-11-04T03:47:16.225Z,84.24
2022-11-04T03:52:09.668Z,84.50
2022-11-04T03:57:29.355Z,84.73
2022-11-04T04:02:28.767Z,85.09
2022-11-04T04:07:32.936Z,84.98
2022-11-04T04:12:32.605Z,84.80
2022-11-04T04:17:32.291Z,84.39
2022-11-04T04:22:30.110Z,84.54
2022-11-04T04:27:33.563Z,83.94
2022-11-04T04:32:31.128Z,83.78
2022-11-04T04:37:26.686Z,83.45
2022-11-04T04:42:43.641Z,83.79
2022-11-04T04:47:45.040Z,84.37
2022-11-04T04:52:41.475Z,84.42
2022-11-04T04:57:34.743Z,84.60
2022-11-04T05:02:28.475Z,84.97
2022-11-04T05:07:23.208Z,85.08
2022-11-04T05:12:16.388Z,85.09
2022-11-04T05:17:09.497Z,85.13
2022-11-04T05:22:05.949Z,85.43
2022-11-04T05:27:01.008Z,84.75
2022-11-04T05:31:54.417Z,83.87
2022-11-04T05:36:50.258Z,83.36
2022-11-04T05:41:43.597Z,83.22
2022-11-04T05:46:38.187Z,83.55
2022-11-04T05:51:32.371Z,82.39
2022-11-04T05:56:25.644Z,81.48
2022-11-04T06:01:31.850Z,80.83
2022-11-04T06:06:28.549Z,79.90
2022-11-04T06:11:23.808Z,79.32
2022-11-04T06:16:17.140Z,78.92
2022-11-04T06:21:21.431Z,78.54
2022-11-04T06:26:18.211Z,77.99
2022-11-04T06:31:14.173Z,77.55
2022-11-04T06:36:09.188Z,77.00
2022-11-04T06:41:02.664Z,76.44
2022-11-04T06:45:58.248Z,76.31
2022-11-04T06:50:51.577Z,76.13
2022-11-04T06:55:45.424Z,75.35
2022-11-04T07:00:43.890Z,74.63
2022-11-04T07:05:38.829Z,74.14
2022-11-04T07:10:34.070Z,73.51
2022-11-04T07:15:29.647Z,72.50
2022-11-04T07:20:32.224Z,72.42
2022-11-04T07:25:26.929Z,72.59
2022-11-04T07:30:22.297Z,71.86
2022-11-04T07:35:16.064Z,71.69
2022-11-04T07:40:10.996Z,70.50
2022-11-04T07:45:06.947Z,70.16
2022-11-04T07:50:04.142Z,70.20
2022-11-04T07:55:02.073Z,70.20
2022-11-04T07:59:55.792Z,70.39
2022-11-04T08:04:57.660Z,70.45
2022-11-04T08:09:51.017Z,70.06
2022-11-04T08:14:44.509Z,69.38
2022-11-04T08:19:38.001Z,67.98
2022-11-04T08:24:33.634Z,66.86
2022-11-04T08:29:27.522Z,65.55
2022-11-04T08:34:21.082Z,65.19
2022-11-04T08:39:17.880Z,64.35
2022-11-04T08:44:31.989Z,63.36
2022-11-04T08:49:36.993Z,62.23
2022-11-04T08:54:44.284Z,60.93
2022-11-04T08:59:48.453Z,58.52
2022-11-04T09:04:42.516Z,55.50
2022-11-04T09:09:36.092Z,53.07
2022-11-04T09:14:29.893Z,51.47
2022-11-04T09:19:24.908Z,50.87
2022-11-04T09:24:21.324Z,50.19
2022-11-04T09:29:18.260Z,49.88
2022-11-04T09:34:24.183Z,50.09
2022-11-04T09:39:24.658Z,49.78
2022-11-04T09:44:27.320Z,50.05
2022-11-04T09:49:22.539Z,49.85
2022-11-04T09:54:24.267Z,48.74
2022-11-04T09:59:34.152Z,49.63
2022-11-04T10:04:39.145Z,49.02
2022-11-04T10:09:50.469Z,49.03
2022-11-04T10:15:04.700Z,49.23
2022-11-04T10:20:41.074Z,48.85
2022-11-04T10:25:51.153Z,47.69
2022-11-04T10:31:22.963Z,46.49
2022-11-04T10:36:19.552Z,46.12
2022-11-04T10:41:31.100Z,45.95
2022-11-04T10:46:38.748Z,46.28
2022-11-04T10:51:32.532Z,46.31
2022-11-04T10:56:38.350Z,46.37
2022-11-04T11:01:33.946Z,46.01
2022-11-04T11:06:31.814Z,45.94
2022-11-04T11:11:45.610Z,45.46
2022-11-04T11:16:39.415Z,44.97
2022-11-04T11:21:48.100Z,45.65
2022-11-04T11:26:50.176Z,46.02
2022-11-04T11:31:44.170Z,45.43
2022-11-04T11:36:48.890Z,46.06
2022-11-04T11:41:57.507Z,45.79
2022-11-04T11:46:55.813Z,45.99
2022-11-04T11:51:51.178Z,46.13
2022-11-04T12:02:31.822Z,45.29
2022-11-04T12:13:18.277Z,45.40
2022-11-04T12:18:37.075Z,45.51
2022-11-04T12:23:41.439Z,45.67
2022-11-04T12:28:47.734Z,45.77
2022-11-04T12:33:59.949Z,45.95
2022-11-04T12:39:19.981Z,46.00
2022-11-04T12:44:28.464Z,45.93
2022-11-04T12:49:53.174Z,45.65
2022-11-04T12:55:32.791Z,46.06
2022-11-04T13:00:35.269Z,46.28
2022-11-04T13:05:47.278Z,46.62
2022-11-04T13:10:49.910Z,46.61
2022-11-04T13:16:01.054Z,46.11
2022-11-04T13:21:02.791Z,46.14
2022-11-04T13:26:03.938Z,45.72
2022-11-04T13:31:05.370Z,45.46
2022-11-04T13:36:05.687Z,45.50
2022-11-04T13:41:17.427Z,45.43
2022-11-04T13:46:23.917Z,45.89
2022-11-04T13:51:20.029Z,45.93
2022-11-04T13:56:33.957Z,46.52
2022-11-04T14:01:31.561Z,46.95
2022-11-04T14:06:51.738Z,46.92
2022-11-04T14:12:18.048Z,47.33
2022-11-04T14:17:49.830Z,47.87
2022-11-04T14:22:54.581Z,48.15
2022-11-04T14:27:50.738Z,48.62
2022-11-04T14:32:44.210Z,48.85
2022-11-04T14:37:42.085Z,49.26
2022-11-04T14:43:01.636Z,49.38
2022-11-04T14:48:00.151Z,49.91
2022-11-04T14:52:59.681Z,50.13
2022-11-04T14:57:56.752Z,50.39
2022-11-04T15:02:59.962Z,50.58
2022-11-04T15:07:56.387Z,50.61
2022-11-04T15:12:55.365Z,50.82
2022-11-04T15:17:48.854Z,51.19
2022-11-04T15:22:56.507Z,51.49
2022-11-04T15:27:50.801Z,51.70
2022-11-04T15:33:02.519Z,51.94
2022-11-04T15:37:59.645Z,52.23
2022-11-04T15:42:55.161Z,52.21
2022-11-04T15:47:50.781Z,52.51
2022-11-04T15:52:53.356Z,52.38
2022-11-04T15:57:47.264Z,52.73
2022-11-04T16:02:56.462Z,52.83
2022-11-04T16:08:44.008Z,53.37
2022-11-04T16:13:46.535Z,53.72
2022-11-04T16:18:50.438Z,53.67
2022-11-04T16:24:08.100Z,53.82
2022-11-04T16:29:18.906Z,54.26
2022-11-04T16:34:15.432Z,54.26
2022-11-04T16:40:42.642Z,54.65
2022-11-04T16:46:19.730Z,54.80
2022-11-04T16:51:30.018Z,55.26
2022-11-04T16:56:31.516Z,55.47
2022-11-04T17:01:30.863Z,55.52
2022-11-04T17:06:25.584Z,56.04
2022-11-04T17:11:19.235Z,56.11
2022-11-04T17:16:17.444Z,56.45
2022-11-04T17:21:15.174Z,56.72
2022-11-04T17:26:08.702Z,57.09
2022-11-04T17:31:31.613Z,56.62
2022-11-04T17:36:25.972Z,56.77
2022-11-04T17:41:39.760Z,56.44
2022-11-04T17:46:37.999Z,55.94
2022-11-04T17:51:32.007Z,56.28
2022-11-04T17:56:25.792Z,56.03
2022-11-04T18:01:22.206Z,55.85
2022-11-04T18:06:29.147Z,55.62
2022-11-04T18:12:11.428Z,54.26
2022-11-04T18:17:08.236Z,53.60
2022-11-04T18:22:29.612Z,52.90
2022-11-04T18:28:04.318Z,52.12
2022-11-04T18:34:16.744Z,51.56
2022-11-04T18:39:25.889Z,50.96
2022-11-04T18:44:22.553Z,51.59
2022-11-04T18:49:17.979Z,53.26
2022-11-04T18:54:15.554Z,56.79
2022-11-04T18:59:15.303Z,58.36
2022-11-04T19:04:27.390Z,58.26
2022-11-04T19:14:44.612Z,58.29
2022-11-04T19:19:39.604Z,58.65
2022-11-04T19:24:37.215Z,59.73
2022-11-04T19:29:52.759Z,59.49
2022-11-04T19:35:26.394Z,57.51
2022-11-04T19:40:26.546Z,57.58
2022-11-04T19:45:48.871Z,59.06
2022-11-04T19:50:52.389Z,60.54
2022-11-04T19:56:07.896Z,61.43
2022-11-04T20:01:25.349Z,61.38
2022-11-04T20:06:27.585Z,61.77
2022-11-04T20:11:53.520Z,61.88
2022-11-04T20:18:27.127Z,62.22
2022-11-04T20:24:18.990Z,62.97
2022-11-04T20:36:15.948Z,63.21
2022-11-04T20:47:24.596Z,63.73
2022-11-04T20:52:29.939Z,64.25
2022-11-04T20:57:35.667Z,64.37
2022-11-04T21:02:52.952Z,64.38
2022-11-04T21:07:54.792Z,64.71
2022-11-04T21:20:13.523Z,65.25
2022-11-04T21:31:40.410Z,66.21
2022-11-04T21:43:54.729Z,65.66
2022-11-04T21:50:21.626Z,65.18
2022-11-04T22:01:29.706Z,66.16
2022-11-04T22:12:08.861Z,67.18
2022-11-04T22:17:29.358Z,67.23
2022-11-04T22:22:31.952Z,67.51
2022-11-04T22:28:32.140Z,67.54
2022-11-04T22:34:57.654Z,67.88
2022-11-04T22:39:49.261Z,67.98
2022-11-04T22:45:03.890Z,68.41
2022-11-04T22:50:01.608Z,68.51
2022-11-04T22:54:55.940Z,68.96
2022-11-04T23:00:12.458Z,68.92
2022-11-04T23:05:27.265Z,69.09
2022-11-04T23:17:11.467Z,69.56
2022-11-04T23:22:43.064Z,70.12
2022-11-04T23:28:13.333Z,70.43
2022-11-04T23:33:16.413Z,70.98
2022-11-04T23:38:18.395Z,71.80
2022-11-04T23:43:24.317Z,72.39
2022-11-04T23:49:05.841Z,73.08
2022-11-04T23:55:24.731Z,73.44
